sensor_id;sensor_type;location;lat;lon;timestamp;temperature;humidity
64869;DHT22;51349;52.424;10.840;2024-03-08T00:00:50;-1.70;99.90
64869;DHT22;51349;52.424;10.840;2024-03-08T00:05:51;-1.70;99.90
64869;DHT22;51349;52.424;10.840;2024-03-08T00:10:52;-1.80;99.90
64869;DHT22;51349;52.424;10.840;2024-03-08T00:15:53;-1.80;99.90
64869;DHT22;51349;52.424;10.840;2024-03-08T00:20:53;-1.80;99.90
64869;DHT22;51349;52.424;10.840;2024-03-08T00:25:54;-1.90;99.90
64869;DHT22;51349;52.424;10.840;2024-03-08T00:30:56;-2.00;99.90
64869;DHT22;51349;52.424;10.840;2024-03-08T00:35:56;-2.00;99.90
64869;DHT22;51349;52.424;10.840;2024-03-08T00:40:57;-2.00;99.90
64869;DHT22;51349;52.424;10.840;2024-03-08T00:45:58;-2.00;99.90
64869;DHT22;51349;52.424;10.840;2024-03-08T00:50:58;-2.10;99.90
64869;DHT22;51349;52.424;10.840;2024-03-08T00:55:59;-2.20;99.90
64869;DHT22;51349;52.424;10.840;2024-03-08T01:01:00;-2.20;99.90
64869;DHT22;51349;52.424;10.840;2024-03-08T01:06:01;-2.30;99.90
64869;DHT22;51349;52.424;10.840;2024-03-08T01:11:01;-2.30;99.90
64869;DHT22;51349;52.424;10.840;2024-03-08T01:16:02;-2.40;99.90
64869;DHT22;51349;52.424;10.840;2024-03-08T01:21:04;-2.50;99.90
64869;DHT22;51349;52.424;10.840;2024-03-08T01:26:04;-2.60;99.90
64869;DHT22;51349;52.424;10.840;2024-03-08T01:31:05;-2.70;99.90
64869;DHT22;51349;52.424;10.840;2024-03-08T01:36:06;-2.60;99.90
64869;DHT22;51349;52.424;10.840;2024-03-08T01:41:07;-2.70;99.90
64869;DHT22;51349;52.424;10.840;2024-03-08T01:46:09;-2.70;99.90
64869;DHT22;51349;52.424;10.840;2024-03-08T01:51:09;-2.70;99.90
64869;DHT22;51349;52.424;10.840;2024-03-08T01:56:12;-2.90;99.90
64869;DHT22;51349;52.424;10.840;2024-03-08T02:01:14;-2.80;99.90
64869;DHT22;51349;52.424;10.840;2024-03-08T02:06:15;-2.90;99.90
64869;DHT22;51349;52.424;10.840;2024-03-08T02:11:16;-2.80;99.90
64869;DHT22;51349;52.424;10.840;2024-03-08T02:16:24;-3.00;99.90
64869;DHT22;51349;52.424;10.840;2024-03-08T02:21:25;-3.10;99.90
64869;DHT22;51349;52.424;10.840;2024-03-08T02:26:26;-3.00;99.90
64869;DHT22;51349;52.424;10.840;2024-03-08T02:31:27;-3.10;99.90
64869;DHT22;51349;52.424;10.840;2024-03-08T02:36:28;-3.10;99.90
64869;DHT22;51349;52.424;10.840;2024-03-08T02:41:28;-3.30;99.90
64869;DHT22;51349;52.424;10.840;2024-03-08T02:46:29;-3.30;99.90
64869;DHT22;51349;52.424;10.840;2024-03-08T02:51:30;-3.20;99.90
64869;DHT22;51349;52.424;10.840;2024-03-08T02:56:31;-3.20;99.90
64869;DHT22;51349;52.424;10.840;2024-03-08T03:01:35;-3.20;99.90
64869;DHT22;51349;52.424;10.840;2024-03-08T03:06:37;-3.00;99.90
64869;DHT22;51349;52.424;10.840;2024-03-08T03:11:38;-3.00;99.90
64869;DHT22;51349;52.424;10.840;2024-03-08T03:16:38;-3.10;99.90
64869;DHT22;51349;52.424;10.840;2024-03-08T03:21:39;-3.00;99.90
64869;DHT22;51349;52.424;10.840;2024-03-08T03:26:39;-3.00;99.90
64869;DHT22;51349;52.424;10.840;2024-03-08T03:31:41;-2.90;99.90
64869;DHT22;51349;52.424;10.840;2024-03-08T03:36:41;-2.80;99.90
64869;DHT22;51349;52.424;10.840;2024-03-08T03:41:43;-2.80;99.90
64869;DHT22;51349;52.424;10.840;2024-03-08T03:46:46;-2.80;99.90
64869;DHT22;51349;52.424;10.840;2024-03-08T03:51:47;-2.80;99.90
64869;DHT22;51349;52.424;10.840;2024-03-08T03:56:47;-2.90;99.90
64869;DHT22;51349;52.424;10.840;2024-03-08T04:01:56;-2.90;99.90
64869;DHT22;51349;52.424;10.840;2024-03-08T04:06:56;-3.10;99.90
64869;DHT22;51349;52.424;10.840;2024-03-08T04:11:58;-3.10;99.90
64869;DHT22;51349;52.424;10.840;2024-03-08T04:16:59;-3.00;99.90
64869;DHT22;51349;52.424;10.840;2024-03-08T04:21:59;-2.90;99.90
64869;DHT22;51349;52.424;10.840;2024-03-08T04:27:01;-2.90;99.90
64869;DHT22;51349;52.424;10.840;2024-03-08T04:32:05;-2.90;99.90
64869;DHT22;51349;52.424;10.840;2024-03-08T04:37:07;-3.00;99.90
64869;DHT22;51349;52.424;10.840;2024-03-08T04:42:11;-3.10;99.90
64869;DHT22;51349;52.424;10.840;2024-03-08T04:47:11;-3.10;99.90
64869;DHT22;51349;52.424;10.840;2024-03-08T04:52:12;-3.20;99.90
64869;DHT22;51349;52.424;10.840;2024-03-08T04:57:13;-3.20;99.90
64869;DHT22;51349;52.424;10.840;2024-03-08T05:02:14;-3.20;99.90
64869;DHT22;51349;52.424;10.840;2024-03-08T05:07:14;-3.10;99.90
64869;DHT22;51349;52.424;10.840;2024-03-08T05:12:15;-2.90;99.90
64869;DHT22;51349;52.424;10.840;2024-03-08T05:17:16;-3.00;99.90
64869;DHT22;51349;52.424;10.840;2024-03-08T05:22:19;-3.10;99.90
64869;DHT22;51349;52.424;10.840;2024-03-08T05:27:20;-3.10;99.90
64869;DHT22;51349;52.424;10.840;2024-03-08T05:32:21;-3.10;99.90
64869;DHT22;51349;52.424;10.840;2024-03-08T05:37:22;-3.10;99.90
64869;DHT22;51349;52.424;10.840;2024-03-08T05:42:22;-3.30;99.90
64869;DHT22;51349;52.424;10.840;2024-03-08T05:47:23;-3.30;99.90
64869;DHT22;51349;52.424;10.840;2024-03-08T05:52:24;-3.30;99.90
64869;DHT22;51349;52.424;10.840;2024-03-08T05:57:24;-3.40;99.90
64869;DHT22;51349;52.424;10.840;2024-03-08T06:02:25;-3.50;99.90
64869;DHT22;51349;52.424;10.840;2024-03-08T06:07:25;-3.60;99.90
64869;DHT22;51349;52.424;10.840;2024-03-08T06:12:26;-3.50;99.90
64869;DHT22;51349;52.424;10.840;2024-03-08T06:17:29;-3.60;99.90
64869;DHT22;51349;52.424;10.840;2024-03-08T06:22:30;-3.70;99.90
64869;DHT22;51349;52.424;10.840;2024-03-08T06:27:32;-3.60;99.90
64869;DHT22;51349;52.424;10.840;2024-03-08T06:32:34;-3.60;99.90
64869;DHT22;51349;52.424;10.840;2024-03-08T06:37:36;-3.50;99.90
64869;DHT22;51349;52.424;10.840;2024-03-08T06:42:36;-3.40;99.90
64869;DHT22;51349;52.424;10.840;2024-03-08T06:47:37;-3.10;99.90
64869;DHT22;51349;52.424;10.840;2024-03-08T06:52:38;-2.90;99.90
64869;DHT22;51349;52.424;10.840;2024-03-08T06:57:40;-2.70;99.90
64869;DHT22;51349;52.424;10.840;2024-03-08T07:02:41;-2.60;99.90
64869;DHT22;51349;52.424;10.840;2024-03-08T07:07:42;-2.20;99.90
64869;DHT22;51349;52.424;10.840;2024-03-08T07:12:43;-2.10;99.90
64869;DHT22;51349;52.424;10.840;2024-03-08T07:17:44;-1.90;99.90
64869;DHT22;51349;52.424;10.840;2024-03-08T07:22:47;-1.70;99.90
64869;DHT22;51349;52.424;10.840;2024-03-08T07:27:49;-1.60;99.90
64869;DHT22;51349;52.424;10.840;2024-03-08T07:32:50;-1.20;99.90
64869;DHT22;51349;52.424;10.840;2024-03-08T07:37:51;-1.00;99.90
64869;DHT22;51349;52.424;10.840;2024-03-08T07:42:51;-0.80;99.90
64869;DHT22;51349;52.424;10.840;2024-03-08T07:47:52;-0.50;99.90
64869;DHT22;51349;52.424;10.840;2024-03-08T07:52:53;-0.20;99.90
64869;DHT22;51349;52.424;10.840;2024-03-08T07:57:55;0.20;99.90
64869;DHT22;51349;52.424;10.840;2024-03-08T08:02:55;0.50;99.90
64869;DHT22;51349;52.424;10.840;2024-03-08T08:07:56;0.70;99.90
64869;DHT22;51349;52.424;10.840;2024-03-08T08:12:57;1.10;99.90
64869;DHT22;51349;52.424;10.840;2024-03-08T08:17:57;1.50;99.90
64869;DHT22;51349;52.424;10.840;2024-03-08T08:22:58;2.10;99.90
64869;DHT22;51349;52.424;10.840;2024-03-08T08:27:59;2.60;99.90
64869;DHT22;51349;52.424;10.840;2024-03-08T08:33:00;3.10;99.90
64869;DHT22;51349;52.424;10.840;2024-03-08T08:38:01;3.70;99.90
64869;DHT22;51349;52.424;10.840;2024-03-08T08:43:04;4.50;99.90
64869;DHT22;51349;52.424;10.840;2024-03-08T08:48:05;4.40;99.90
64869;DHT22;51349;52.424;10.840;2024-03-08T08:53:06;4.90;99.90
64869;DHT22;51349;52.424;10.840;2024-03-08T08:58:07;5.40;99.90
64869;DHT22;51349;52.424;10.840;2024-03-08T09:03:08;5.60;99.90
64869;DHT22;51349;52.424;10.840;2024-03-08T09:08:08;5.70;99.90
64869;DHT22;51349;52.424;10.840;2024-03-08T09:13:09;6.60;99.90
64869;DHT22;51349;52.424;10.840;2024-03-08T09:18:12;7.30;99.90
64869;DHT22;51349;52.424;10.840;2024-03-08T09:23:13;7.20;99.90
64869;DHT22;51349;52.424;10.840;2024-03-08T09:28:13;8.20;99.90
64869;DHT22;51349;52.424;10.840;2024-03-08T09:33:14;7.50;99.90
64869;DHT22;51349;52.424;10.840;2024-03-08T09:38:19;8.50;99.90
64869;DHT22;51349;52.424;10.840;2024-03-08T09:43:21;9.70;99.90
64869;DHT22;51349;52.424;10.840;2024-03-08T09:48:23;9.10;99.90
64869;DHT22;51349;52.424;10.840;2024-03-08T09:53:23;10.00;99.90
64869;DHT22;51349;52.424;10.840;2024-03-08T09:58:24;10.30;99.90
64869;DHT22;51349;52.424;10.840;2024-03-08T10:03:34;9.90;99.90
64869;DHT22;51349;52.424;10.840;2024-03-08T10:08:35;8.80;99.90
64869;DHT22;51349;52.424;10.840;2024-03-08T10:13:37;10.30;99.90
64869;DHT22;51349;52.424;10.840;2024-03-08T10:18:38;10.60;99.90
64869;DHT22;51349;52.424;10.840;2024-03-08T10:23:39;11.20;99.90
64869;DHT22;51349;52.424;10.840;2024-03-08T10:28:50;11.10;99.90
64869;DHT22;51349;52.424;10.840;2024-03-08T10:33:51;11.00;99.90
64869;DHT22;51349;52.424;10.840;2024-03-08T10:38:52;10.50;99.90
64869;DHT22;51349;52.424;10.840;2024-03-08T10:49:31;12.50;99.90
64869;DHT22;51349;52.424;10.840;2024-03-08T10:54:37;13.00;96.60
64869;DHT22;51349;52.424;10.840;2024-03-08T10:59:41;11.00;98.30
64869;DHT22;51349;52.424;10.840;2024-03-08T11:04:47;12.50;99.30
64869;DHT22;51349;52.424;10.840;2024-03-08T11:09:49;12.30;95.50
64869;DHT22;51349;52.424;10.840;2024-03-08T11:14:55;11.90;97.30
64869;DHT22;51349;52.424;10.840;2024-03-08T11:19:56;12.90;96.50
64869;DHT22;51349;52.424;10.840;2024-03-08T11:25:04;13.50;95.00
64869;DHT22;51349;52.424;10.840;2024-03-08T11:30:10;14.00;94.40
64869;DHT22;51349;52.424;10.840;2024-03-08T11:35:21;14.20;93.70
64869;DHT22;51349;52.424;10.840;2024-03-08T11:40:26;11.60;96.50
64869;DHT22;51349;52.424;10.840;2024-03-08T11:45:27;13.40;95.60
64869;DHT22;51349;52.424;10.840;2024-03-08T11:50:28;16.10;88.20
64869;DHT22;51349;52.424;10.840;2024-03-08T11:55:28;15.30;85.50
64869;DHT22;51349;52.424;10.840;2024-03-08T12:00:30;15.30;89.70
64869;DHT22;51349;52.424;10.840;2024-03-08T12:05:35;13.60;86.10
64869;DHT22;51349;52.424;10.840;2024-03-08T12:10:36;17.00;87.10
64869;DHT22;51349;52.424;10.840;2024-03-08T12:15:39;15.70;80.90
64869;DHT22;51349;52.424;10.840;2024-03-08T12:20:39;17.10;81.30
64869;DHT22;51349;52.424;10.840;2024-03-08T12:25:44;15.80;86.70
64869;DHT22;51349;52.424;10.840;2024-03-08T12:30:50;16.60;85.80
64869;DHT22;51349;52.424;10.840;2024-03-08T12:35:56;13.50;85.40
64869;DHT22;51349;52.424;10.840;2024-03-08T12:40:59;14.10;80.80
64869;DHT22;51349;52.424;10.840;2024-03-08T12:46:00;17.20;77.90
64869;DHT22;51349;52.424;10.840;2024-03-08T12:51:00;15.90;77.60
64869;DHT22;51349;52.424;10.840;2024-03-08T12:56:02;16.70;73.30
64869;DHT22;51349;52.424;10.840;2024-03-08T13:01:04;17.20;75.30
64869;DHT22;51349;52.424;10.840;2024-03-08T13:06:12;16.40;73.20
64869;DHT22;51349;52.424;10.840;2024-03-08T13:11:13;19.30;71.70
64869;DHT22;51349;52.424;10.840;2024-03-08T13:16:14;18.00;73.20
64869;DHT22;51349;52.424;10.840;2024-03-08T13:21:19;16.60;72.80
64869;DHT22;51349;52.424;10.840;2024-03-08T13:26:24;17.20;71.80
64869;DHT22;51349;52.424;10.840;2024-03-08T13:31:26;14.90;70.60
64869;DHT22;51349;52.424;10.840;2024-03-08T13:36:26;13.40;77.40
64869;DHT22;51349;52.424;10.840;2024-03-08T13:41:39;14.30;75.70
64869;DHT22;51349;52.424;10.840;2024-03-08T13:46:40;13.50;74.50
64869;DHT22;51349;52.424;10.840;2024-03-08T13:51:41;13.90;76.90
64869;DHT22;51349;52.424;10.840;2024-03-08T13:56:45;13.20;76.20
64869;DHT22;51349;52.424;10.840;2024-03-08T14:01:46;12.00;77.40
64869;DHT22;51349;52.424;10.840;2024-03-08T14:06:50;12.10;78.30
64869;DHT22;51349;52.424;10.840;2024-03-08T14:11:52;12.10;82.70
64869;DHT22;51349;52.424;10.840;2024-03-08T14:16:55;12.20;80.00
64869;DHT22;51349;52.424;10.840;2024-03-08T14:21:58;11.50;83.10
64869;DHT22;51349;52.424;10.840;2024-03-08T14:26:59;11.90;81.30
64869;DHT22;51349;52.424;10.840;2024-03-08T14:32:00;11.40;79.20
64869;DHT22;51349;52.424;10.840;2024-03-08T14:37:01;11.10;80.80
64869;DHT22;51349;52.424;10.840;2024-03-08T14:42:06;11.50;82.80
64869;DHT22;51349;52.424;10.840;2024-03-08T14:47:08;11.70;82.00
64869;DHT22;51349;52.424;10.840;2024-03-08T14:52:10;11.30;80.70
64869;DHT22;51349;52.424;10.840;2024-03-08T14:57:27;11.60;80.70
64869;DHT22;51349;52.424;10.840;2024-03-08T15:02:28;11.20;85.70
64869;DHT22;51349;52.424;10.840;2024-03-08T15:07:29;10.70;82.60
64869;DHT22;51349;52.424;10.840;2024-03-08T15:12:31;10.80;84.00
64869;DHT22;51349;52.424;10.840;2024-03-08T15:17:31;10.50;83.70
64869;DHT22;51349;52.424;10.840;2024-03-08T15:22:33;10.80;84.70
64869;DHT22;51349;52.424;10.840;2024-03-08T15:27:34;10.30;84.50
64869;DHT22;51349;52.424;10.840;2024-03-08T15:32:44;10.50;86.90
64869;DHT22;51349;52.424;10.840;2024-03-08T15:37:44;10.00;88.90
64869;DHT22;51349;52.424;10.840;2024-03-08T15:42:55;9.40;89.90
64869;DHT22;51349;52.424;10.840;2024-03-08T15:47:56;9.40;90.80
64869;DHT22;51349;52.424;10.840;2024-03-08T15:52:57;9.20;90.80
64869;DHT22;51349;52.424;10.840;2024-03-08T15:57:59;9.00;91.00
64869;DHT22;51349;52.424;10.840;2024-03-08T16:03:04;9.00;91.40
64869;DHT22;51349;52.424;10.840;2024-03-08T16:08:12;8.60;91.50
64869;DHT22;51349;52.424;10.840;2024-03-08T16:13:19;8.50;91.80
64869;DHT22;51349;52.424;10.840;2024-03-08T16:18:22;8.40;91.10
64869;DHT22;51349;52.424;10.840;2024-03-08T16:23:24;8.30;91.80
64869;DHT22;51349;52.424;10.840;2024-03-08T16:28:24;8.20;91.90
64869;DHT22;51349;52.424;10.840;2024-03-08T16:33:28;8.00;91.90
64869;DHT22;51349;52.424;10.840;2024-03-08T16:38:29;7.90;92.40
64869;DHT22;51349;52.424;10.840;2024-03-08T16:43:29;7.80;93.00
64869;DHT22;51349;52.424;10.840;2024-03-08T16:48:30;7.60;93.20
64869;DHT22;51349;52.424;10.840;2024-03-08T16:53:31;7.50;93.80
64869;DHT22;51349;52.424;10.840;2024-03-08T16:58:34;7.30;94.30
64869;DHT22;51349;52.424;10.840;2024-03-08T17:03:34;7.10;94.80
64869;DHT22;51349;52.424;10.840;2024-03-08T17:08:36;6.90;95.40
64869;DHT22;51349;52.424;10.840;2024-03-08T17:13:37;6.80;95.80
64869;DHT22;51349;52.424;10.840;2024-03-08T17:18:38;6.70;96.20
64869;DHT22;51349;52.424;10.840;2024-03-08T17:23:40;6.60;96.50
64869;DHT22;51349;52.424;10.840;2024-03-08T17:28:41;6.40;97.10
64869;DHT22;51349;52.424;10.840;2024-03-08T17:33:43;6.30;97.40
64869;DHT22;51349;52.424;10.840;2024-03-08T17:38:45;6.00;98.20
64869;DHT22;51349;52.424;10.840;2024-03-08T17:43:47;5.90;98.80
64869;DHT22;51349;52.424;10.840;2024-03-08T17:48:48;5.80;99.20
64869;DHT22;51349;52.424;10.840;2024-03-08T17:53:49;5.70;99.50
64869;DHT22;51349;52.424;10.840;2024-03-08T17:58:51;5.60;99.90
64869;DHT22;51349;52.424;10.840;2024-03-08T18:03:52;5.50;99.90
64869;DHT22;51349;52.424;10.840;2024-03-08T18:08:53;5.40;99.90
64869;DHT22;51349;52.424;10.840;2024-03-08T18:13:55;5.40;99.90
64869;DHT22;51349;52.424;10.840;2024-03-08T18:18:56;5.20;99.90
64869;DHT22;51349;52.424;10.840;2024-03-08T18:23:57;5.20;99.90
64869;DHT22;51349;52.424;10.840;2024-03-08T18:28:57;5.10;99.90
64869;DHT22;51349;52.424;10.840;2024-03-08T18:33:58;5.00;99.90
64869;DHT22;51349;52.424;10.840;2024-03-08T18:39:02;5.00;99.90
64869;DHT22;51349;52.424;10.840;2024-03-08T18:44:04;4.90;99.90
64869;DHT22;51349;52.424;10.840;2024-03-08T18:49:05;4.90;99.90
64869;DHT22;51349;52.424;10.840;2024-03-08T18:54:06;4.80;99.90
64869;DHT22;51349;52.424;10.840;2024-03-08T18:59:07;4.70;99.90
64869;DHT22;51349;52.424;10.840;2024-03-08T19:04:09;4.60;99.90
64869;DHT22;51349;52.424;10.840;2024-03-08T19:09:10;4.50;99.90
64869;DHT22;51349;52.424;10.840;2024-03-08T19:14:14;4.40;99.90
64869;DHT22;51349;52.424;10.840;2024-03-08T19:19:18;4.30;99.90
64869;DHT22;51349;52.424;10.840;2024-03-08T19:24:21;4.30;99.90
64869;DHT22;51349;52.424;10.840;2024-03-08T19:29:22;4.30;99.90
64869;DHT22;51349;52.424;10.840;2024-03-08T19:34:25;4.20;99.90
64869;DHT22;51349;52.424;10.840;2024-03-08T19:39:26;4.10;99.90
64869;DHT22;51349;52.424;10.840;2024-03-08T19:44:28;3.90;99.90
64869;DHT22;51349;52.424;10.840;2024-03-08T19:49:28;3.80;99.90
64869;DHT22;51349;52.424;10.840;2024-03-08T19:54:31;3.70;99.90
64869;DHT22;51349;52.424;10.840;2024-03-08T19:59:34;3.60;99.90
64869;DHT22;51349;52.424;10.840;2024-03-08T20:04:42;3.40;99.90
64869;DHT22;51349;52.424;10.840;2024-03-08T20:09:42;3.30;99.90
64869;DHT22;51349;52.424;10.840;2024-03-08T20:14:43;3.20;99.90
64869;DHT22;51349;52.424;10.840;2024-03-08T20:19:43;3.00;99.90
64869;DHT22;51349;52.424;10.840;2024-03-08T20:24:44;2.90;99.90
64869;DHT22;51349;52.424;10.840;2024-03-08T20:29:45;2.80;99.90
64869;DHT22;51349;52.424;10.840;2024-03-08T20:34:46;2.80;99.90
64869;DHT22;51349;52.424;10.840;2024-03-08T20:39:47;2.70;99.90
64869;DHT22;51349;52.424;10.840;2024-03-08T20:44:49;2.40;99.90
64869;DHT22;51349;52.424;10.840;2024-03-08T20:49:49;2.10;99.90
64869;DHT22;51349;52.424;10.840;2024-03-08T20:54:51;1.80;99.90
64869;DHT22;51349;52.424;10.840;2024-03-08T20:59:52;1.60;99.90
64869;DHT22;51349;52.424;10.840;2024-03-08T21:04:54;1.60;99.90
64869;DHT22;51349;52.424;10.840;2024-03-08T21:09:54;1.40;99.90
64869;DHT22;51349;52.424;10.840;2024-03-08T21:14:55;1.20;99.90
64869;DHT22;51349;52.424;10.840;2024-03-08T21:19:56;1.10;99.90
64869;DHT22;51349;52.424;10.840;2024-03-08T21:24:57;1.10;99.90
64869;DHT22;51349;52.424;10.840;2024-03-08T21:29:57;1.30;99.90
64869;DHT22;51349;52.424;10.840;2024-03-08T21:34:58;1.50;99.90
64869;DHT22;51349;52.424;10.840;2024-03-08T21:39:59;1.60;99.90
64869;DHT22;51349;52.424;10.840;2024-03-08T21:45:02;1.60;99.90
64869;DHT22;51349;52.424;10.840;2024-03-08T21:50:05;1.60;99.90
64869;DHT22;51349;52.424;10.840;2024-03-08T21:55:06;1.70;99.90
64869;DHT22;51349;52.424;10.840;2024-03-08T22:00:07;1.90;99.90
64869;DHT22;51349;52.424;10.840;2024-03-08T22:05:12;1.90;99.90
64869;DHT22;51349;52.424;10.840;2024-03-08T22:10:18;1.90;99.90
64869;DHT22;51349;52.424;10.840;2024-03-08T22:15:25;2.00;99.90
64869;DHT22;51349;52.424;10.840;2024-03-08T22:20:27;1.90;99.90
64869;DHT22;51349;52.424;10.840;2024-03-08T22:25:31;2.10;99.90
64869;DHT22;51349;52.424;10.840;2024-03-08T22:30:32;2.00;99.90
64869;DHT22;51349;52.424;10.840;2024-03-08T22:35:32;1.90;99.90
64869;DHT22;51349;52.424;10.840;2024-03-08T22:40:33;1.80;99.90
64869;DHT22;51349;52.424;10.840;2024-03-08T22:45:34;1.70;99.90
64869;DHT22;51349;52.424;10.840;2024-03-08T22:50:35;1.80;99.90
64869;DHT22;51349;52.424;10.840;2024-03-08T22:55:37;1.60;99.90
64869;DHT22;51349;52.424;10.840;2024-03-08T23:00:37;1.80;99.90
64869;DHT22;51349;52.424;10.840;2024-03-08T23:05:38;1.90;99.90
64869;DHT22;51349;52.424;10.840;2024-03-08T23:10:41;1.90;99.90
64869;DHT22;51349;52.424;10.840;2024-03-08T23:15:42;1.80;99.90
64869;DHT22;51349;52.424;10.840;2024-03-08T23:20:43;1.70;99.90
64869;DHT22;51349;52.424;10.840;2024-03-08T23:25:44;1.50;99.90
64869;DHT22;51349;52.424;10.840;2024-03-08T23:30:45;1.30;99.90
64869;DHT22;51349;52.424;10.840;2024-03-08T23:35:45;1.20;99.90
64869;DHT22;51349;52.424;10.840;2024-03-08T23:40:46;1.00;99.90
64869;DHT22;51349;52.424;10.840;2024-03-08T23:45:47;1.00;99.90
64869;DHT22;51349;52.424;10.840;2024-03-08T23:50:49;1.10;99.90
64869;DHT22;51349;52.424;10.840;2024-03-08T23:55:49;1.00;99.90
